Time;durP1;ratioP1;P1;durP2;ratioP2;P2;SDS_P1;SDS_P2;PMS_P1;PMS_P2;Temp;Humidity;BMP_temperature;BMP_pressure;BME280_temperature;BME280_humidity;BME280_pressure;Samples;Min_cycle;Max_cycle;Signal;HPM_P1;HPM_P2
2021/12/13 00:01:28;;;;;;;0.20;0.20;;;;;;;8.69;88.07;102568.22;5020263;28;20105;-76
2021/12/13 00:04:06;;;;;;;0.20;0.20;;;;;;;8.68;87.80;102569.94;5020005;28;20026;-80
2021/12/13 00:06:38;;;;;;;0.27;0.27;;;;;;;8.64;87.95;102566.22;5019744;28;20046;-75
2021/12/13 00:09:10;;;;;;;0.00;0.00;;;;;;;8.64;88.14;102568.84;5002975;28;20033;-76
2021/12/13 00:11:41;;;;;;;0.27;0.27;;;;;;;8.62;87.92;102573.06;5018974;28;20022;-76
2021/12/13 00:14:10;;;;;;;0.20;0.20;;;;;;;8.55;88.00;102573.47;5019512;28;20069;-75
2021/12/13 00:16:39;;;;;;;0.20;0.20;;;;;;;8.51;88.05;102574.97;5019262;28;20325;-75
2021/12/13 00:19:11;;;;;;;0.20;0.20;;;;;;;8.51;88.09;102579.28;5019000;28;20273;-75
2021/12/13 00:21:40;;;;;;;0.20;0.20;;;;;;;8.51;88.10;102571.44;5018952;28;20024;-76
2021/12/13 00:24:09;;;;;;;0.10;0.10;;;;;;;8.47;88.30;102578.16;5018082;28;20038;-75
2021/12/13 00:26:39;;;;;;;0.20;0.20;;;;;;;8.45;88.32;102565.78;5019514;28;20026;-72
2021/12/13 00:29:19;;;;;;;0.20;0.20;;;;;;;8.45;88.21;102576.25;5002041;28;20022;-75
2021/12/13 00:31:58;;;;;;;0.20;0.20;;;;;;;8.47;88.18;102572.03;5019151;28;20034;-74
2021/12/13 00:34:31;;;;;;;2.50;1.10;;;;;;;8.41;88.19;102575.13;5019711;28;20021;-75
2021/12/13 00:37:10;;;;;;;4.43;1.13;;;;;;;8.39;88.28;102562.00;5019550;28;20026;-75
2021/12/13 00:39:51;;;;;;;1.87;1.37;;;;;;;8.47;88.02;102569.44;5018541;28;20416;-74
2021/12/13 00:42:17;;;;;;;2.57;1.60;;;;;;;8.44;87.88;102574.44;5019250;28;20340;-75
2021/12/13 00:44:47;;;;;;;2.60;1.27;;;;;;;8.42;87.67;102581.28;5018022;28;20391;-75
2021/12/13 00:47:23;;;;;;;1.63;1.30;;;;;;;8.38;87.58;102581.09;5018948;28;20116;-75
2021/12/13 00:49:54;;;;;;;0.73;0.73;;;;;;;8.34;87.60;102573.84;5017852;28;20049;-75
2021/12/13 00:52:20;;;;;;;1.03;0.93;;;;;;;8.32;87.61;102575.44;5019380;28;20114;-75
2021/12/13 00:54:46;;;;;;;1.80;0.50;;;;;;;8.31;87.78;102578.88;5019487;28;20388;-74
2021/12/13 00:57:37;;;;;;;0.20;0.20;;;;;;;8.36;87.69;102584.38;5018237;28;20022;-75
2021/12/13 01:00:26;;;;;;;3.40;1.00;;;;;;;8.45;87.34;102581.47;5019086;28;20105;-75
2021/12/13 01:02:58;;;;;;;0.40;0.40;;;;;;;8.43;87.25;102581.38;5050891;28;20316;-75
2021/12/13 01:05:49;;;;;;;0.83;0.83;;;;;;;8.43;87.11;102580.47;5019038;28;20022;-75
2021/12/13 01:08:43;;;;;;;0.47;0.47;;;;;;;8.39;87.42;102592.41;5009335;28;20052;-76
2021/12/13 01:11:32;;;;;;;2.33;0.53;;;;;;;8.36;87.44;102603.56;5018630;28;20076;-75
2021/12/13 01:14:14;;;;;;;0.43;0.43;;;;;;;8.35;87.63;102596.53;5018391;28;20029;-76
2021/12/13 01:17:02;;;;;;;0.63;0.63;;;;;;;8.42;87.23;102604.75;5017560;28;20352;-73
2021/12/13 01:19:48;;;;;;;0.50;0.50;;;;;;;8.43;87.13;102594.44;5018448;28;20026;-77
2021/12/13 01:22:42;;;;;;;0.50;0.50;;;;;;;8.43;87.15;102591.81;4998902;28;20034;-74
2021/12/13 01:25:24;;;;;;;0.67;0.67;;;;;;;8.46;86.48;102589.41;4999100;28;20077;-75
2021/12/13 01:27:58;;;;;;;0.20;0.20;;;;;;;8.47;86.49;102601.66;4998445;28;20038;-76
2021/12/13 01:30:30;;;;;;;2.57;1.50;;;;;;;8.46;86.54;102594.63;4998956;28;20053;-75
2021/12/13 01:32:58;;;;;;;1.90;0.50;;;;;;;8.41;86.70;102598.63;4998045;28;20117;-76
2021/12/13 01:35:26;;;;;;;2.57;1.00;;;;;;;8.36;87.18;102600.94;5012039;28;20372;-76
2021/12/13 01:37:54;;;;;;;1.33;1.17;;;;;;;8.32;87.19;102598.03;5018930;28;20049;-75
2021/12/13 01:40:26;;;;;;;0.40;0.40;;;;;;;8.29;87.61;102600.44;5018486;28;20036;-76
2021/12/13 01:43:07;;;;;;;8.37;0.60;;;;;;;8.29;87.73;102600.44;5017472;28;20068;-75
2021/12/13 01:45:36;;;;;;;0.43;0.43;;;;;;;8.26;87.92;102608.97;5018655;28;20075;-75
2021/12/13 01:48:02;;;;;;;4.30;0.60;;;;;;;8.25;87.60;102602.88;5018342;28;20034;-75
2021/12/13 01:50:41;;;;;;;1.17;0.83;;;;;;;8.23;87.64;102614.88;5017143;28;20060;-75
2021/12/13 01:53:07;;;;;;;0.53;0.50;;;;;;;8.20;87.84;102613.78;5017500;28;20269;-75
2021/12/13 01:55:37;;;;;;;1.23;1.13;;;;;;;8.19;87.81;102607.69;5016873;28;20415;-75
2021/12/13 02:01:09;;;;;;;2.23;1.00;;;;;;;8.13;88.26;102611.56;5018161;28;20045;-74
2021/12/13 02:03:58;;;;;;;0.87;0.87;;;;;;;8.15;88.30;102604.75;5017612;28;20022;-74
2021/12/13 02:06:29;;;;;;;1.83;1.37;;;;;;;8.13;88.51;102615.09;5017220;28;20040;-75
2021/12/13 02:08:57;;;;;;;0.90;0.87;;;;;;;8.15;88.28;102616.09;5016745;28;20038;-75
2021/12/13 02:11:25;;;;;;;1.57;1.23;;;;;;;8.14;88.28;102616.91;5017912;28;20073;-75
2021/12/13 02:14:11;;;;;;;1.40;1.27;;;;;;;8.12;88.03;102615.91;5016946;28;20029;-75
2021/12/13 02:17:00;;;;;;;;;;;;;;;8.15;88.20;102616.09;4997984;28;20026;-74
2021/12/13 02:19:40;;;;;;;4.63;1.90;;;;;;;8.15;88.23;102608.25;4997098;28;19925;-75
2021/12/13 02:22:20;;;;;;;1.03;0.93;;;;;;;8.14;88.23;102616.91;5003682;28;20053;-74
2021/12/13 02:24:50;;;;;;;1.20;1.10;;;;;;;8.11;88.66;102620.19;5017622;28;20029;-75
2021/12/13 02:27:22;;;;;;;1.53;1.40;;;;;;;8.09;88.20;102628.72;5017183;28;20037;-75
2021/12/13 02:29:48;;;;;;;2.07;1.73;;;;;;;8.07;88.43;102619.88;5016723;28;20049;-75
2021/12/13 02:32:14;;;;;;;1.17;0.93;;;;;;;8.06;88.63;102625.91;5016852;28;20048;-74
2021/12/13 02:34:42;;;;;;;0.83;0.83;;;;;;;8.03;88.51;102633.53;5017465;28;20444;-74
2021/12/13 02:37:10;;;;;;;0.10;0.10;;;;;;;8.02;88.55;102630.03;5001410;28;20084;-75
2021/12/13 02:39:46;;;;;;;0.10;0.10;;;;;;;8.00;88.79;102628.09;5017232;28;20377;-74
2021/12/13 02:42:14;;;;;;;0.10;0.10;;;;;;;7.99;88.74;102627.22;5017324;28;20029;-74
2021/12/13 02:44:49;;;;;;;0.00;0.00;;;;;;;7.97;88.70;102618.38;5016847;28;20285;-74
2021/12/13 02:47:27;;;;;;;0.00;0.00;;;;;;;7.93;88.64;102612.06;5018051;28;20092;-74
2021/12/13 02:49:54;;;;;;;0.10;0.10;;;;;;;7.93;88.84;102616.34;5018234;28;20036;-75
2021/12/13 02:52:21;;;;;;;0.10;0.10;;;;;;;7.92;88.84;102618.06;5017800;28;20021;-75
2021/12/13 02:54:51;;;;;;;0.13;0.13;;;;;;;7.92;88.61;102620.66;5017101;28;20080;-75
2021/12/13 02:57:20;;;;;;;0.10;0.10;;;;;;;7.91;88.97;102624.06;5016823;28;20034;-75
2021/12/13 03:00:00;;;;;;;0.00;0.00;;;;;;;7.91;88.95;102624.06;5016929;28;20403;-74
2021/12/13 03:02:31;;;;;;;0.10;0.10;;;;;;;7.93;88.97;102619.88;5017208;28;20034;-73
2021/12/13 03:04:58;;;;;;;0.10;0.10;;;;;;;7.91;89.20;102618.84;5018622;28;20057;-73
2021/12/13 03:07:33;;;;;;;0.07;0.07;;;;;;;8.00;88.83;102623.81;5018575;28;20113;-76
2021/12/13 03:10:01;;;;;;;0.03;0.03;;;;;;;8.03;88.81;102612.69;5017539;28;20040;-74
2021/12/13 03:12:27;;;;;;;0.50;0.50;;;;;;;8.09;88.60;102613.06;5016206;28;20041;-73
2021/12/13 03:15:00;;;;;;;0.20;0.20;;;;;;;8.13;88.31;102612.47;5019804;28;20058;-74
2021/12/13 03:17:28;;;;;;;0.20;0.20;;;;;;;8.13;88.06;102602.03;5020337;28;20168;-73
2021/12/13 03:20:07;;;;;;;0.10;0.10;;;;;;;8.15;87.94;102600.44;5020924;28;20027;-73
2021/12/13 03:22:39;;;;;;;0.10;0.10;;;;;;;8.18;88.11;102597.13;5020478;28;20331;-74
2021/12/13 03:25:17;;;;;;;0.10;0.10;;;;;;;8.20;87.69;102609.47;5020235;28;20298;-73
2021/12/13 03:28:41;;;;;;;0.20;0.20;;;;;;;8.23;87.52;102601.84;5020248;28;20388;-74
2021/12/13 03:31:13;;;;;;;0.10;0.10;;;;;;;8.29;87.04;102603.06;4931918;29;20043;-73
2021/12/13 03:33:58;;;;;;;0.10;0.10;;;;;;;8.23;86.72;102598.34;4943813;29;20061;-73
2021/12/13 03:36:37;;;;;;;0.20;0.20;;;;;;;8.17;87.13;102603.16;5007599;28;20046;-73
2021/12/13 03:39:06;;;;;;;0.20;0.20;;;;;;;8.15;87.32;102613.47;5020644;28;20040;-73
2021/12/13 03:41:32;;;;;;;0.10;0.10;;;;;;;8.19;87.40;102609.38;5020370;28;20057;-73
2021/12/13 03:44:02;;;;;;;0.20;0.20;;;;;;;8.19;87.35;102605.06;5020153;28;20068;-74
2021/12/13 03:46:32;;;;;;;0.20;0.20;;;;;;;8.16;86.89;102601.34;5007939;28;20318;-73
2021/12/13 03:48:59;;;;;;;0.13;0.13;;;;;;;8.13;87.38;102593.28;5000756;28;20036;-73
2021/12/13 03:51:28;;;;;;;0.30;0.30;;;;;;;8.17;87.38;102598.84;5000326;28;20039;-72
2021/12/13 03:53:56;;;;;;;0.10;0.10;;;;;;;8.17;86.89;102591.03;5000592;28;20057;-73
2021/12/13 03:56:26;;;;;;;0.20;0.20;;;;;;;8.19;86.80;102602.47;5000545;28;20026;-74
2021/12/13 03:58:56;;;;;;;0.33;0.33;;;;;;;8.20;86.78;102596.44;5000008;28;20564;-73
2021/12/13 04:02:02;;;;;;;0.10;0.10;;;;;;;8.25;86.95;102597.66;5007279;28;20018;-73
2021/12/13 04:04:41;;;;;;;0.30;0.30;;;;;;;8.25;86.35;102600.25;5019435;28;20332;-74
2021/12/13 04:07:12;;;;;;;0.27;0.27;;;;;;;8.24;86.29;102590.59;5019751;28;20030;-74
2021/12/13 04:09:41;;;;;;;0.20;0.20;;;;;;;8.22;85.86;102593.94;5019551;28;20125;-73
2021/12/13 04:12:07;;;;;;;0.27;0.27;;;;;;;8.20;86.49;102590.28;5018303;28;20056;-74
2021/12/13 04:14:39;;;;;;;0.20;0.20;;;;;;;8.22;86.42;102589.59;5019191;28;20057;-74
2021/12/13 04:17:22;;;;;;;0.10;0.10;;;;;;;8.23;86.10;102590.50;5020005;28;20071;-74
2021/12/13 04:19:55;;;;;;;0.30;0.30;;;;;;;8.22;86.02;102597.44;5019482;28;20042;-72
2021/12/13 04:22:24;;;;;;;0.20;0.20;;;;;;;8.18;86.22;102600.66;5019771;28;20018;-73
2021/12/13 04:24:58;;;;;;;0.20;0.20;;;;;;;8.16;86.16;102602.22;5019159;28;20026;-73
2021/12/13 04:27:54;;;;;;;0.30;0.30;;;;;;;8.19;85.93;102599.84;5019375;28;20018;-73
2021/12/13 04:30:25;;;;;;;0.30;0.30;;;;;;;8.17;85.72;102598.84;5019635;28;20377;-73
2021/12/13 04:32:57;;;;;;;0.17;0.17;;;;;;;8.21;85.70;102597.31;5019434;28;20037;-74
2021/12/13 04:35:23;;;;;;;0.30;0.30;;;;;;;8.18;85.84;102602.34;5019661;28;20029;-73
2021/12/13 04:37:52;;;;;;;0.23;0.23;;;;;;;8.14;86.36;102605.56;5019106;28;20037;-73
2021/12/13 04:40:22;;;;;;;0.10;0.10;;;;;;;8.10;86.27;102602.72;5018620;28;20384;-73
2021/12/13 04:42:50;;;;;;;0.30;0.30;;;;;;;8.09;86.50;102602.63;5017919;28;20021;-73
2021/12/13 04:45:20;;;;;;;0.10;0.10;;;;;;;8.05;86.47;102601.53;5018161;28;20044;-71
2021/12/13 04:47:54;;;;;;;0.10;0.10;;;;;;;8.10;86.21;102602.72;5019058;28;20034;-73
2021/12/13 04:50:25;;;;;;;0.13;0.13;;;;;;;8.09;86.18;102595.72;5019253;28;20297;-73
2021/12/13 04:52:52;;;;;;;0.20;0.20;;;;;;;8.13;86.01;102588.06;5018822;28;20403;-73
2021/12/13 04:55:25;;;;;;;0.20;0.20;;;;;;;8.13;85.98;102586.38;5018999;28;20028;-73
2021/12/13 04:57:53;;;;;;;0.20;0.20;;;;;;;8.10;86.00;102599.25;5017927;28;20395;-73
2021/12/13 05:00:22;;;;;;;0.10;0.10;;;;;;;8.07;85.88;102605.16;5018480;28;20030;-72
2021/12/13 05:02:52;;;;;;;0.20;0.20;;;;;;;8.07;85.94;102609.44;5018532;28;20022;-72
2021/12/13 05:05:18;;;;;;;0.27;0.27;;;;;;;8.07;85.88;102607.75;5018014;28;20387;-72
2021/12/13 05:07:46;;;;;;;0.10;0.10;;;;;;;8.08;85.58;102603.44;5017806;28;20022;-72
2021/12/13 05:10:13;;;;;;;0.17;0.17;;;;;;;8.08;85.90;102612.19;5018543;28;20115;-72
2021/12/13 05:12:39;;;;;;;0.10;0.10;;;;;;;8.12;85.04;102610.69;5017884;28;20033;-72
2021/12/13 05:15:11;;;;;;;0.20;0.20;;;;;;;8.17;84.96;102614.50;5018837;28;20030;-72
2021/12/13 05:17:43;;;;;;;0.20;0.20;;;;;;;8.24;84.15;102615.81;5017912;28;20031;-72
2021/12/13 05:20:23;;;;;;;0.43;0.43;;;;;;;8.28;83.70;102615.19;5017908;28;20025;-73
2021/12/13 05:22:52;;;;;;;0.30;0.30;;;;;;;8.27;83.62;102608.16;5017793;28;20025;-73
2021/12/13 05:25:42;;;;;;;0.40;0.40;;;;;;;8.27;83.73;102604.69;5017688;28;20034;-72
2021/12/13 05:28:10;;;;;;;0.30;0.30;;;;;;;8.27;83.63;102607.28;5017957;28;20033;-72
2021/12/13 05:30:43;;;;;;;0.30;0.30;;;;;;;8.29;83.45;102608.28;5018144;28;20026;-72
2021/12/13 05:33:09;;;;;;;0.20;0.20;;;;;;;8.30;82.83;102605.78;5017916;28;20037;-71
2021/12/13 05:35:40;;;;;;;0.23;0.23;;;;;;;8.31;83.00;102602.38;5017903;28;20113;-73
2021/12/13 05:38:08;;;;;;;0.40;0.40;;;;;;;8.30;83.04;102599.66;5016771;28;20038;-72
2021/12/13 05:40:46;;;;;;;0.30;0.30;;;;;;;8.31;83.13;102611.88;5017207;28;20026;-73
2021/12/13 05:43:29;;;;;;;0.33;0.33;;;;;;;8.31;83.07;102614.50;5017729;28;20407;-71
2021/12/13 05:46:10;;;;;;;0.23;0.23;;;;;;;8.28;83.47;102612.59;5017741;28;20032;-72
2021/12/13 05:48:41;;;;;;;0.40;0.40;;;;;;;8.21;84.01;102599.94;5017774;28;20029;-72
2021/12/13 05:51:19;;;;;;;0.30;0.30;;;;;;;8.17;84.38;102618.81;5016933;28;20045;-72
2021/12/13 05:53:49;;;;;;;0.20;0.20;;;;;;;8.14;84.44;102616.91;5017081;28;20040;-72
2021/12/13 05:56:18;;;;;;;0.40;0.40;;;;;;;8.14;84.07;102606.47;5017300;28;20030;-71
2021/12/13 05:58:55;;;;;;;0.30;0.30;;;;;;;8.13;84.14;102614.16;5017147;28;20113;-74
2021/12/13 06:01:27;;;;;;;0.27;0.27;;;;;;;8.10;84.07;102615.78;5017954;28;20104;-73
2021/12/13 06:04:15;;;;;;;0.30;0.30;;;;;;;8.13;84.21;102615.09;5017730;28;20636;-72
2021/12/13 06:06:50;;;;;;;0.23;0.23;;;;;;;8.14;83.98;102611.66;5000156;28;20030;-72
2021/12/13 06:09:43;;;;;;;0.43;0.43;;;;;;;8.07;84.68;102617.28;5016980;28;20041;-71
2021/12/13 06:12:26;;;;;;;0.20;0.20;;;;;;;8.01;84.79;102615.16;5016911;28;20049;-72
2021/12/13 06:14:53;;;;;;;0.20;0.20;;;;;;;7.99;84.96;102614.16;5017757;28;20057;-73
2021/12/13 06:17:31;;;;;;;0.30;0.30;;;;;;;7.98;85.39;102620.19;5017450;28;20021;-72
2021/12/13 06:20:11;;;;;;;0.10;0.10;;;;;;;7.94;85.80;102623.38;5017371;28;20024;-71
2021/12/13 06:22:37;;;;;;;0.17;0.17;;;;;;;7.91;85.68;102631.91;5017152;28;20404;-72
2021/12/13 06:25:16;;;;;;;0.10;0.10;;;;;;;7.91;85.65;102625.78;5017559;28;20018;-72
2021/12/13 06:27:41;;;;;;;0.10;0.10;;;;;;;7.89;85.78;102629.97;5005346;28;20408;-73
2021/12/13 06:30:09;;;;;;;0.10;0.10;;;;;;;7.90;85.95;102630.09;5016622;28;20037;-72
2021/12/13 06:32:40;;;;;;;0.20;0.20;;;;;;;7.92;85.39;102627.59;5007304;28;20026;-72
2021/12/13 06:35:43;;;;;;;0.20;0.20;;;;;;;7.91;85.59;102628.41;5016368;28;20033;-72
2021/12/13 06:38:26;;;;;;;0.20;0.20;;;;;;;7.89;85.76;102627.38;5015605;28;20018;-73
2021/12/13 06:40:59;;;;;;;0.10;0.10;;;;;;;7.86;85.89;102625.47;5015861;28;20084;-72
2021/12/13 06:43:48;;;;;;;0.10;0.10;;;;;;;7.86;85.79;102629.78;5015884;28;20030;-72
2021/12/13 06:46:22;;;;;;;0.13;0.13;;;;;;;7.87;85.79;102629.91;4990014;28;20069;-73
2021/12/13 06:48:50;;;;;;;0.20;0.20;;;;;;;7.83;85.94;102633.09;5008919;28;20084;-72
2021/12/13 06:51:18;;;;;;;0.20;0.20;;;;;;;7.80;86.23;102627.66;5010690;28;20037;-73
2021/12/13 06:54:05;;;;;;;0.20;0.20;;;;;;;7.78;86.29;102632.75;5019652;28;20022;-72
2021/12/13 06:56:33;;;;;;;0.10;0.10;;;;;;;7.79;86.20;102645.00;5019153;28;20026;-72
2021/12/13 06:59:02;;;;;;;0.20;0.20;;;;;;;7.80;86.19;102649.41;5019831;28;20033;-73
2021/12/13 07:01:31;;;;;;;0.20;0.20;;;;;;;7.82;86.19;102641.72;5011149;28;20380;-72
2021/12/13 07:03:59;;;;;;;0.10;0.10;;;;;;;7.86;85.98;102643.75;5046307;28;20030;-72
2021/12/13 07:06:27;;;;;;;0.20;0.20;;;;;;;7.83;86.48;102647.03;5019145;28;20446;-72
2021/12/13 07:09:11;;;;;;;0.10;0.10;;;;;;;7.86;86.00;102645.44;5016804;28;20030;-73
2021/12/13 07:11:43;;;;;;;0.20;0.20;;;;;;;7.86;85.83;102653.25;5019950;28;20121;-72
2021/12/13 07:14:13;;;;;;;0.40;0.40;;;;;;;7.82;85.80;102660.88;5020647;28;20026;-72
2021/12/13 07:16:41;;;;;;;0.20;0.20;;;;;;;7.83;86.15;102661.78;5019663;28;20108;-73
2021/12/13 07:19:22;;;;;;;0.20;0.20;;;;;;;7.81;86.16;102666.91;5020767;28;20041;-73
2021/12/13 07:21:54;;;;;;;0.23;0.23;;;;;;;7.81;85.94;102659.06;5020319;28;20026;-72
2021/12/13 07:24:42;;;;;;;0.20;0.20;;;;;;;7.84;85.86;102667.09;5020773;28;20022;-72
2021/12/13 07:27:18;;;;;;;0.20;0.20;;;;;;;7.82;86.00;102673.94;5019747;28;20026;-73
2021/12/13 07:29:48;;;;;;;0.13;0.13;;;;;;;7.90;85.66;102668.34;5019415;28;20021;-72
2021/12/13 07:32:37;;;;;;;0.20;0.20;;;;;;;7.93;85.41;102668.53;5019335;28;20049;-72
2021/12/13 07:35:07;;;;;;;0.30;0.30;;;;;;;7.88;85.62;102678.66;5019559;28;20026;-73
2021/12/13 07:37:45;;;;;;;0.10;0.10;;;;;;;7.89;85.53;102682.16;5018240;28;20033;-72
2021/12/13 07:40:19;;;;;;;0.20;0.20;;;;;;;7.89;85.51;102687.38;4999262;28;20030;-73
2021/12/13 07:43:05;;;;;;;0.20;0.20;;;;;;;7.86;85.31;102687.16;5006807;28;20066;-73
2021/12/13 07:45:44;;;;;;;0.17;0.17;;;;;;;7.87;85.77;102692.50;5018922;28;20084;-73
2021/12/13 07:48:14;;;;;;;0.20;0.20;;;;;;;7.88;85.52;102690.78;5018682;28;20036;-73
2021/12/13 07:50:41;;;;;;;0.20;0.20;;;;;;;7.91;85.57;102688.41;5017779;28;20376;-72
2021/12/13 07:53:11;;;;;;;0.30;0.30;;;;;;;7.90;85.48;102690.09;5018334;28;20038;-73
2021/12/13 07:55:45;;;;;;;0.30;0.30;;;;;;;7.88;85.55;102686.47;5018036;28;20025;-72
2021/12/13 07:58:15;;;;;;;0.27;0.27;;;;;;;7.86;85.61;102685.47;5017848;28;20037;-71
2021/12/13 08:00:40;;;;;;;0.27;0.27;;;;;;;7.91;85.56;102686.69;5018229;28;20017;-74
2021/12/13 08:03:13;;;;;;;0.30;0.30;;;;;;;7.87;85.67;102683.75;5018030;28;20022;-72
2021/12/13 08:05:44;;;;;;;0.13;0.13;;;;;;;7.87;85.53;102681.16;5018520;28;20088;-73
2021/12/13 08:08:20;;;;;;;0.10;0.10;;;;;;;7.88;85.61;102682.94;5017665;28;20039;-72
2021/12/13 08:10:45;;;;;;;;;;;;;;;7.88;85.48;102685.56;5018362;28;20121;-72
2021/12/13 08:13:16;;;;;;;0.20;0.20;;;;;;;7.94;85.48;102686.00;5017724;28;19964;-72
2021/12/13 08:15:51;;;;;;;0.20;0.20;;;;;;;7.94;85.13;102680.78;5018178;28;20106;-73
2021/12/13 08:18:35;;;;;;;0.30;0.30;;;;;;;7.93;85.23;102685.09;5018333;28;20021;-72
2021/12/13 08:21:08;;;;;;;0.30;0.30;;;;;;;7.90;85.32;102695.31;5017611;28;20664;-73
2021/12/13 08:23:42;;;;;;;0.00;0.00;;;;;;;7.90;85.36;102692.69;5018302;28;20068;-72
2021/12/13 08:26:12;;;;;;;0.33;0.33;;;;;;;7.87;85.67;102692.50;5017104;28;20033;-70
2021/12/13 08:28:45;;;;;;;0.23;0.23;;;;;;;7.87;85.62;102686.38;5017776;28;20269;-73
2021/12/13 08:31:20;;;;;;;0.20;0.20;;;;;;;7.86;85.70;102680.25;5017869;28;20084;-72
2021/12/13 08:33:49;;;;;;;0.30;0.30;;;;;;;7.86;85.71;102682.88;4977897;28;1182808;-73
2021/12/13 08:36:17;;;;;;;0.20;0.20;;;;;;;7.89;85.51;102684.75;5001311;28;20050;-73
2021/12/13 08:38:49;;;;;;;0.10;0.10;;;;;;;7.90;85.35;102689.19;5018893;28;20065;-73
2021/12/13 08:41:15;;;;;;;0.30;0.30;;;;;;;7.89;85.58;102692.59;5019170;28;20026;-72
2021/12/13 08:44:09;;;;;;;0.20;0.20;;;;;;;7.93;85.38;102692.94;5018290;28;20048;-72
2021/12/13 08:46:40;;;;;;;0.20;0.20;;;;;;;8.00;85.00;102693.31;5018600;28;20034;-72
2021/12/13 08:49:21;;;;;;;0.20;0.20;;;;;;;8.03;84.71;102696.16;5018474;28;20057;-74
2021/12/13 08:52:06;;;;;;;0.23;0.23;;;;;;;8.09;84.41;102705.31;5018596;28;20033;-71
2021/12/13 08:54:51;;;;;;;0.27;0.27;;;;;;;8.19;83.69;102712.06;5018395;28;20033;-70
2021/12/13 08:57:28;;;;;;;0.30;0.30;;;;;;;8.24;82.76;102720.22;5018123;28;20300;-73
2021/12/13 08:59:54;;;;;;;0.30;0.30;;;;;;;8.24;82.83;102722.81;5018381;28;20116;-73
2021/12/13 09:02:21;;;;;;;0.50;0.50;;;;;;;8.26;83.15;102729.03;5017470;28;20168;-73
2021/12/13 09:05:03;;;;;;;0.20;0.20;;;;;;;8.25;82.76;102735.97;5017678;28;20030;-73
2021/12/13 09:07:29;;;;;;;0.30;0.30;;;;;;;8.26;83.04;102736.88;5018328;28;20080;-73
2021/12/13 09:09:55;;;;;;;0.43;0.43;;;;;;;8.27;83.94;102741.28;5018583;28;20029;-72
2021/12/13 09:12:43;;;;;;;0.40;0.40;;;;;;;8.24;83.90;102741.97;5017285;28;20025;-72
2021/12/13 09:15:23;;;;;;;0.30;0.30;;;;;;;8.25;83.91;102758.56;5018112;28;20037;-72
2021/12/13 09:17:50;;;;;;;0.40;0.40;;;;;;;8.29;84.04;102754.44;5018038;28;20442;-71
2021/12/13 09:20:31;;;;;;;0.23;0.23;;;;;;;8.27;84.14;102763.88;5018258;28;20051;-72
2021/12/13 09:23:07;;;;;;;0.20;0.20;;;;;;;8.23;84.62;102765.38;5017896;28;20304;-72
2021/12/13 09:25:37;;;;;;;0.20;0.20;;;;;;;8.19;84.89;102764.25;5018293;28;20061;-73
2021/12/13 09:28:21;;;;;;;0.30;0.30;;;;;;;8.20;85.16;102771.28;5017372;28;20132;-72
2021/12/13 09:30:50;;;;;;;0.20;0.20;;;;;;;8.20;85.15;102775.59;5017285;28;20459;-72
2021/12/13 09:33:28;;;;;;;0.40;0.40;;;;;;;8.25;85.21;102771.59;5018030;28;20045;-71
2021/12/13 09:35:56;;;;;;;0.30;0.30;;;;;;;8.28;84.90;102773.53;5018162;28;20407;-73
2021/12/13 09:38:40;;;;;;;0.20;0.20;;;;;;;8.31;84.93;102782.47;5017618;28;20300;-73
2021/12/13 09:41:18;;;;;;;0.30;0.30;;;;;;;8.37;85.02;102779.38;5018157;28;20371;-72
2021/12/13 09:43:48;;;;;;;0.30;0.30;;;;;;;8.45;84.21;102790.31;5017244;28;20022;-71
2021/12/13 09:46:19;;;;;;;0.40;0.40;;;;;;;8.50;83.97;102783.72;5017937;28;20072;-74
2021/12/13 09:48:54;;;;;;;0.30;0.30;;;;;;;8.55;83.71;102784.06;5017342;28;20026;-73
2021/12/13 09:51:31;;;;;;;0.40;0.40;;;;;;;8.54;83.05;102780.56;5016428;28;20048;-73
2021/12/13 09:54:00;;;;;;;0.30;0.30;;;;;;;8.56;83.00;102783.25;5017804;28;20072;-73
2021/12/13 09:56:29;;;;;;;0.30;0.30;;;;;;;8.61;82.66;102781.88;5017516;28;20021;-72
2021/12/13 09:58:59;;;;;;;0.50;0.50;;;;;;;8.65;82.41;102789.09;5017244;28;20018;-73
2021/12/13 10:01:32;;;;;;;0.30;0.30;;;;;;;8.73;82.23;102790.50;5017291;28;20049;-73
2021/12/13 10:04:08;;;;;;;0.27;0.27;;;;;;;8.73;82.47;102787.03;5018047;28;20033;-74
2021/12/13 10:06:40;;;;;;;0.40;0.40;;;;;;;8.76;82.10;102782.91;5017080;28;20034;-73
2021/12/13 10:09:06;;;;;;;0.40;0.40;;;;;;;8.79;82.24;102788.31;5017386;28;20068;-74
2021/12/13 10:12:09;;;;;;;0.40;0.40;;;;;;;8.76;82.91;102787.22;5016938;28;20057;-74
2021/12/13 10:14:40;;;;;;;0.30;0.30;;;;;;;8.78;82.18;102790.84;5010418;28;20443;-73
2021/12/13 10:17:07;;;;;;;0.20;0.20;;;;;;;8.78;82.66;102790.84;5016736;28;20123;-74
2021/12/13 10:19:39;;;;;;;0.20;0.20;;;;;;;8.80;82.97;102791.84;5016137;28;20026;-73
2021/12/13 10:22:08;;;;;;;0.30;0.30;;;;;;;8.80;83.07;102789.25;5017226;28;20316;-74
2021/12/13 10:24:37;;;;;;;0.30;0.30;;;;;;;8.79;83.34;102790.06;5017216;28;20025;-74
2021/12/13 10:27:07;;;;;;;0.20;0.20;;;;;;;8.81;82.94;102785.81;5016852;28;20026;-73
2021/12/13 10:29:33;;;;;;;0.30;0.30;;;;;;;8.81;83.10;102788.44;5016770;28;20304;-73
2021/12/13 10:32:10;;;;;;;0.30;0.30;;;;;;;8.85;82.88;102786.94;5016093;28;20026;-74
2021/12/13 10:34:39;;;;;;;0.30;0.30;;;;;;;8.85;82.77;102782.59;5017036;28;20389;-73
2021/12/13 10:37:10;;;;;;;0.20;0.20;;;;;;;8.85;83.02;102782.59;5017281;28;20022;-73
2021/12/13 10:39:42;;;;;;;0.30;0.30;;;;;;;8.88;82.89;102787.13;5017056;28;20104;-73
2021/12/13 10:42:15;;;;;;;0.30;0.30;;;;;;;8.90;82.24;102785.53;5017030;28;20052;-73
2021/12/13 10:44:44;;;;;;;0.40;0.40;;;;;;;8.95;82.97;102783.22;5015487;28;20117;-74
2021/12/13 10:47:14;;;;;;;0.70;0.70;;;;;;;8.98;82.42;102781.72;5016849;28;20063;-73
2021/12/13 10:49:42;;;;;;;0.27;0.27;;;;;;;8.99;82.48;102788.75;5017172;28;20120;-72
2021/12/13 10:52:15;;;;;;;0.20;0.20;;;;;;;9.05;82.00;102785.66;5017129;28;20057;-73
2021/12/13 10:54:46;;;;;;;0.20;0.20;;;;;;;9.11;81.18;102786.06;5016464;28;20049;-74
2021/12/13 10:57:19;;;;;;;0.30;0.30;;;;;;;9.12;80.89;102781.72;4999955;28;20072;-73
2021/12/13 10:59:47;;;;;;;0.30;0.30;;;;;;;9.10;81.19;102788.56;5049117;28;20033;-74
2021/12/13 11:02:23;;;;;;;0.20;0.20;;;;;;;9.06;81.10;102790.06;5016326;28;20042;-73
2021/12/13 11:04:53;;;;;;;;;;;;;;;9.05;80.88;102789.13;5017367;28;20029;-73
2021/12/13 11:07:19;;;;;;;0.20;0.20;;;;;;;9.07;80.99;102784.94;5016969;28;19913;-73
2021/12/13 11:09:47;;;;;;;0.20;0.20;;;;;;;9.10;81.56;102780.72;5016790;28;20312;-73
2021/12/13 11:12:29;;;;;;;0.30;0.30;;;;;;;9.05;81.87;102773.47;5016528;28;20091;-74
2021/12/13 11:14:58;;;;;;;0.63;0.63;;;;;;;9.05;81.74;102777.81;5017245;28;20033;-74
2021/12/13 11:17:27;;;;;;;0.40;0.40;;;;;;;9.02;82.04;102775.88;5016519;28;20018;-73
2021/12/13 11:19:56;;;;;;;0.30;0.30;;;;;;;9.04;82.04;102773.38;5016441;28;20359;-72
2021/12/13 11:22:29;;;;;;;0.30;0.30;;;;;;;9.06;82.25;102777.00;5016029;28;20064;-73
2021/12/13 11:24:59;;;;;;;0.40;0.40;;;;;;;9.09;81.84;102778.91;5017153;28;20381;-74
2021/12/13 11:27:28;;;;;;;0.37;0.37;;;;;;;9.07;81.82;102776.19;5015812;28;20026;-72
2021/12/13 11:29:53;;;;;;;0.33;0.33;;;;;;;9.10;81.33;102778.09;5016870;28;20087;-72
2021/12/13 11:32:34;;;;;;;0.40;0.40;;;;;;;9.06;81.87;102779.59;5016683;28;20444;-72
2021/12/13 11:35:08;;;;;;;0.20;0.20;;;;;;;9.05;81.58;102770.84;5017812;28;20022;-72
2021/12/13 11:37:45;;;;;;;0.30;0.30;;;;;;;9.05;81.74;102775.19;5019734;28;20354;-72
2021/12/13 11:40:51;;;;;;;0.23;0.23;;;;;;;9.09;81.41;102782.41;5020450;28;20025;-73
2021/12/13 11:43:53;;;;;;;0.20;0.20;;;;;;;9.05;81.40;102783.91;5008384;28;20030;-73
2021/12/13 11:46:41;;;;;;;0.30;0.30;;;;;;;9.04;81.43;102776.00;5020587;28;20100;-74
2021/12/13 11:49:44;;;;;;;0.30;0.30;;;;;;;9.05;81.58;102780.41;5020127;28;20014;-74
2021/12/13 11:52:34;;;;;;;0.27;0.27;;;;;;;9.08;81.45;102772.75;5020117;28;20060;-73
2021/12/13 11:55:19;;;;;;;0.50;0.50;;;;;;;9.06;81.39;102770.06;5019683;28;20278;-71
2021/12/13 11:58:10;;;;;;;0.30;0.30;;;;;;;9.05;81.55;102770.84;5019156;28;20112;-73
2021/12/13 12:00:38;;;;;;;0.23;0.23;;;;;;;9.04;82.26;102773.38;5019023;28;20026;-73
2021/12/13 12:03:28;;;;;;;0.30;0.30;;;;;;;9.05;81.79;102770.84;5019951;28;20022;-72
2021/12/13 12:06:08;;;;;;;0.20;0.20;;;;;;;9.06;81.60;102770.06;5019886;28;20384;-73
2021/12/13 12:08:58;;;;;;;0.30;0.30;;;;;;;9.04;81.59;102769.03;5019476;28;20080;-73
2021/12/13 12:11:54;;;;;;;0.30;0.30;;;;;;;9.02;82.01;102767.16;5019320;28;20312;-72